sensor_id;sensor_type;location;lat;lon;timestamp;temperature;humidity
64670;DHT22;51080;51.690;5.174;2023-02-22T00:01:13;6.90;84.60
64670;DHT22;51080;51.690;5.174;2023-02-22T00:06:57;6.80;84.50
64670;DHT22;51080;51.690;5.174;2023-02-22T00:12:42;6.80;84.60
64670;DHT22;51080;51.690;5.174;2023-02-22T00:18:27;6.80;84.70
64670;DHT22;51080;51.690;5.174;2023-02-22T00:24:12;6.80;84.70
64670;DHT22;51080;51.690;5.174;2023-02-22T00:29:56;6.70;84.60
64670;DHT22;51080;51.690;5.174;2023-02-22T00:35:41;6.70;84.70
64670;DHT22;51080;51.690;5.174;2023-02-22T00:41:26;6.70;84.70
64670;DHT22;51080;51.690;5.174;2023-02-22T00:47:10;6.70;84.70
64670;DHT22;51080;51.690;5.174;2023-02-22T00:52:56;6.60;84.60
64670;DHT22;51080;51.690;5.174;2023-02-22T00:58:41;6.50;84.70
64670;DHT22;51080;51.690;5.174;2023-02-22T01:04:26;6.50;84.60
64670;DHT22;51080;51.690;5.174;2023-02-22T01:10:11;6.50;84.70
64670;DHT22;51080;51.690;5.174;2023-02-22T01:15:56;6.50;84.80
64670;DHT22;51080;51.690;5.174;2023-02-22T01:21:40;6.50;84.70
64670;DHT22;51080;51.690;5.174;2023-02-22T01:27:24;6.40;84.90
64670;DHT22;51080;51.690;5.174;2023-02-22T01:33:08;6.40;84.90
64670;DHT22;51080;51.690;5.174;2023-02-22T01:38:52;6.40;84.80
64670;DHT22;51080;51.690;5.174;2023-02-22T01:44:37;6.40;85.00
64670;DHT22;51080;51.690;5.174;2023-02-22T01:51:01;6.40;85.00
64670;DHT22;51080;51.690;5.174;2023-02-22T01:57:32;6.40;85.10
64670;DHT22;51080;51.690;5.174;2023-02-22T02:03:20;6.40;85.20
64670;DHT22;51080;51.690;5.174;2023-02-22T02:09:13;6.40;85.20
64670;DHT22;51080;51.690;5.174;2023-02-22T02:15:31;6.40;85.20
64670;DHT22;51080;51.690;5.174;2023-02-22T02:21:39;6.40;85.30
64670;DHT22;51080;51.690;5.174;2023-02-22T02:39:38;6.30;85.40
64670;DHT22;51080;51.690;5.174;2023-02-22T02:45:34;6.30;85.40
64670;DHT22;51080;51.690;5.174;2023-02-22T02:51:23;6.30;85.40
64670;DHT22;51080;51.690;5.174;2023-02-22T02:57:11;6.30;85.40
64670;DHT22;51080;51.690;5.174;2023-02-22T03:22:12;6.10;85.70
64670;DHT22;51080;51.690;5.174;2023-02-22T03:28:01;6.10;85.80
64670;DHT22;51080;51.690;5.174;2023-02-22T03:33:50;6.10;85.90
64670;DHT22;51080;51.690;5.174;2023-02-22T03:39:37;6.00;86.10
64670;DHT22;51080;51.690;5.174;2023-02-22T03:45:24;6.10;86.30
64670;DHT22;51080;51.690;5.174;2023-02-22T03:51:11;6.00;86.40
64670;DHT22;51080;51.690;5.174;2023-02-22T03:57:31;6.00;86.50
64670;DHT22;51080;51.690;5.174;2023-02-22T04:03:16;5.90;86.40
64670;DHT22;51080;51.690;5.174;2023-02-22T04:09:01;5.90;86.40
64670;DHT22;51080;51.690;5.174;2023-02-22T04:14:46;6.00;86.60
64670;DHT22;51080;51.690;5.174;2023-02-22T04:21:00;6.00;86.60
64670;DHT22;51080;51.690;5.174;2023-02-22T04:26:45;5.90;86.60
64670;DHT22;51080;51.690;5.174;2023-02-22T04:32:29;5.90;86.60
64670;DHT22;51080;51.690;5.174;2023-02-22T04:38:12;5.80;86.80
64670;DHT22;51080;51.690;5.174;2023-02-22T04:43:57;5.80;86.90
64670;DHT22;51080;51.690;5.174;2023-02-22T04:49:41;5.80;87.00
64670;DHT22;51080;51.690;5.174;2023-02-22T04:55:25;5.80;87.10
64670;DHT22;51080;51.690;5.174;2023-02-22T05:01:09;5.80;87.10
64670;DHT22;51080;51.690;5.174;2023-02-22T05:07:23;5.70;87.20
64670;DHT22;51080;51.690;5.174;2023-02-22T05:13:07;5.70;87.30
64670;DHT22;51080;51.690;5.174;2023-02-22T05:18:51;5.70;87.30
64670;DHT22;51080;51.690;5.174;2023-02-22T05:24:36;5.80;87.30
64670;DHT22;51080;51.690;5.174;2023-02-22T05:30:25;5.70;87.30
64670;DHT22;51080;51.690;5.174;2023-02-22T05:36:09;5.70;87.30
64670;DHT22;51080;51.690;5.174;2023-02-22T05:41:53;5.80;87.40
64670;DHT22;51080;51.690;5.174;2023-02-22T05:47:38;5.70;87.40
64670;DHT22;51080;51.690;5.174;2023-02-22T05:53:23;5.70;87.40
64670;DHT22;51080;51.690;5.174;2023-02-22T05:59:08;5.70;87.50
64670;DHT22;51080;51.690;5.174;2023-02-22T06:04:54;5.80;87.40
64670;DHT22;51080;51.690;5.174;2023-02-22T06:10:39;5.80;87.40
64670;DHT22;51080;51.690;5.174;2023-02-22T06:16:22;5.80;87.50
64670;DHT22;51080;51.690;5.174;2023-02-22T06:22:06;5.80;87.40
64670;DHT22;51080;51.690;5.174;2023-02-22T06:28:21;5.80;87.40
64670;DHT22;51080;51.690;5.174;2023-02-22T06:34:04;5.90;87.30
64670;DHT22;51080;51.690;5.174;2023-02-22T06:39:49;5.80;87.20
64670;DHT22;51080;51.690;5.174;2023-02-22T06:45:33;5.90;87.30
64670;DHT22;51080;51.690;5.174;2023-02-22T06:51:17;5.90;87.30
64670;DHT22;51080;51.690;5.174;2023-02-22T06:57:01;6.00;87.30
64670;DHT22;51080;51.690;5.174;2023-02-22T07:02:46;6.00;87.30
64670;DHT22;51080;51.690;5.174;2023-02-22T07:08:32;5.90;87.20
64670;DHT22;51080;51.690;5.174;2023-02-22T07:14:16;6.00;87.30
64670;DHT22;51080;51.690;5.174;2023-02-22T07:20:00;6.00;87.10
64670;DHT22;51080;51.690;5.174;2023-02-22T07:25:45;5.90;87.10
64670;DHT22;51080;51.690;5.174;2023-02-22T07:31:34;5.90;87.10
64670;DHT22;51080;51.690;5.174;2023-02-22T07:37:17;6.00;87.10
64670;DHT22;51080;51.690;5.174;2023-02-22T07:43:32;6.00;87.00
64670;DHT22;51080;51.690;5.174;2023-02-22T07:49:17;6.10;87.00
64670;DHT22;51080;51.690;5.174;2023-02-22T07:55:01;6.10;86.80
64670;DHT22;51080;51.690;5.174;2023-02-22T08:00:45;6.20;86.70
64670;DHT22;51080;51.690;5.174;2023-02-22T08:06:30;6.30;86.60
64670;DHT22;51080;51.690;5.174;2023-02-22T08:12:15;6.30;86.50
64670;DHT22;51080;51.690;5.174;2023-02-22T08:18:01;6.40;86.40
64670;DHT22;51080;51.690;5.174;2023-02-22T08:23:50;6.40;86.30
64670;DHT22;51080;51.690;5.174;2023-02-22T08:29:35;6.50;86.20
64670;DHT22;51080;51.690;5.174;2023-02-22T08:35:19;6.60;86.10
64670;DHT22;51080;51.690;5.174;2023-02-22T08:41:04;6.70;86.00
64670;DHT22;51080;51.690;5.174;2023-02-22T08:46:50;6.80;85.70
64670;DHT22;51080;51.690;5.174;2023-02-22T08:52:35;7.00;85.40
64670;DHT22;51080;51.690;5.174;2023-02-22T08:58:19;7.10;85.20
64670;DHT22;51080;51.690;5.174;2023-02-22T09:04:03;7.30;84.80
64670;DHT22;51080;51.690;5.174;2023-02-22T09:09:48;7.50;84.50
64670;DHT22;51080;51.690;5.174;2023-02-22T09:15:33;7.70;84.20
64670;DHT22;51080;51.690;5.174;2023-02-22T09:21:17;7.90;83.90
64670;DHT22;51080;51.690;5.174;2023-02-22T09:27:02;8.10;83.60
64670;DHT22;51080;51.690;5.174;2023-02-22T09:32:46;8.30;82.90
64670;DHT22;51080;51.690;5.174;2023-02-22T09:38:31;8.50;82.60
64670;DHT22;51080;51.690;5.174;2023-02-22T09:44:25;8.60;82.10
64670;DHT22;51080;51.690;5.174;2023-02-22T09:50:16;8.70;82.00
64670;DHT22;51080;51.690;5.174;2023-02-22T09:56:16;9.00;81.50
64670;DHT22;51080;51.690;5.174;2023-02-22T10:02:32;9.20;81.10
64670;DHT22;51080;51.690;5.174;2023-02-22T10:08:57;9.30;80.60
64670;DHT22;51080;51.690;5.174;2023-02-22T10:14:55;9.30;80.50
64670;DHT22;51080;51.690;5.174;2023-02-22T10:20:56;9.40;80.50
64670;DHT22;51080;51.690;5.174;2023-02-22T10:27:19;9.50;80.20
64670;DHT22;51080;51.690;5.174;2023-02-22T10:33:27;9.60;80.30
64670;DHT22;51080;51.690;5.174;2023-02-22T10:39:29;9.60;79.50
64670;DHT22;51080;51.690;5.174;2023-02-22T10:45:30;9.60;79.90
64670;DHT22;51080;51.690;5.174;2023-02-22T10:51:16;9.60;80.10
64670;DHT22;51080;51.690;5.174;2023-02-22T10:57:00;9.70;79.80
64670;DHT22;51080;51.690;5.174;2023-02-22T11:02:56;9.60;79.40
64670;DHT22;51080;51.690;5.174;2023-02-22T11:08:42;9.70;79.50
64670;DHT22;51080;51.690;5.174;2023-02-22T11:14:28;9.80;79.20
64670;DHT22;51080;51.690;5.174;2023-02-22T11:20:29;9.80;79.00
64670;DHT22;51080;51.690;5.174;2023-02-22T11:26:16;9.90;78.40
64670;DHT22;51080;51.690;5.174;2023-02-22T11:32:15;9.80;78.60
64670;DHT22;51080;51.690;5.174;2023-02-22T11:38:27;9.80;79.00
64670;DHT22;51080;51.690;5.174;2023-02-22T11:44:26;9.70;79.40
64670;DHT22;51080;51.690;5.174;2023-02-22T11:50:39;9.60;80.50
64670;DHT22;51080;51.690;5.174;2023-02-22T12:09:08;10.40;80.40
64670;DHT22;51080;51.690;5.174;2023-02-22T12:15:02;10.80;78.90
64670;DHT22;51080;51.690;5.174;2023-02-22T12:20:56;11.10;78.40
64670;DHT22;51080;51.690;5.174;2023-02-22T12:26:46;11.20;77.70
64670;DHT22;51080;51.690;5.174;2023-02-22T12:32:41;11.00;77.90
64670;DHT22;51080;51.690;5.174;2023-02-22T12:38:38;10.90;78.80
64670;DHT22;51080;51.690;5.174;2023-02-22T12:44:29;10.90;78.90
64670;DHT22;51080;51.690;5.174;2023-02-22T12:50:21;11.00;78.30
64670;DHT22;51080;51.690;5.174;2023-02-22T12:56:24;11.00;78.00
64670;DHT22;51080;51.690;5.174;2023-02-22T13:02:24;10.80;78.20
64670;DHT22;51080;51.690;5.174;2023-02-22T13:21:19;10.60;78.30
64670;DHT22;51080;51.690;5.174;2023-02-22T13:27:12;10.60;78.80
64670;DHT22;51080;51.690;5.174;2023-02-22T13:45:34;10.60;78.50
64670;DHT22;51080;51.690;5.174;2023-02-22T13:57:44;10.50;79.00
64670;DHT22;51080;51.690;5.174;2023-02-22T14:03:37;10.70;78.80
64670;DHT22;51080;51.690;5.174;2023-02-22T14:09:45;10.90;78.10
64670;DHT22;51080;51.690;5.174;2023-02-22T14:15:30;11.00;78.20
64670;DHT22;51080;51.690;5.174;2023-02-22T14:21:20;11.20;77.20
64670;DHT22;51080;51.690;5.174;2023-02-22T14:27:04;11.20;76.80
64670;DHT22;51080;51.690;5.174;2023-02-22T14:32:49;11.20;75.90
64670;DHT22;51080;51.690;5.174;2023-02-22T14:38:36;11.10;76.40
64670;DHT22;51080;51.690;5.174;2023-02-22T14:44:29;11.00;76.80
64670;DHT22;51080;51.690;5.174;2023-02-22T14:50:22;11.10;76.60
64670;DHT22;51080;51.690;5.174;2023-02-22T14:56:44;11.10;76.40
64670;DHT22;51080;51.690;5.174;2023-02-22T15:02:38;11.10;75.20
64670;DHT22;51080;51.690;5.174;2023-02-22T15:08:24;11.00;75.60
64670;DHT22;51080;51.690;5.174;2023-02-22T15:14:22;10.90;75.10
64670;DHT22;51080;51.690;5.174;2023-02-22T15:20:14;10.80;75.30
64670;DHT22;51080;51.690;5.174;2023-02-22T15:26:04;10.70;76.70
64670;DHT22;51080;51.690;5.174;2023-02-22T15:31:52;10.70;76.60
64670;DHT22;51080;51.690;5.174;2023-02-22T15:37:37;10.60;77.00
64670;DHT22;51080;51.690;5.174;2023-02-22T15:43:23;10.60;77.10
64670;DHT22;51080;51.690;5.174;2023-02-22T15:49:18;10.50;77.20
64670;DHT22;51080;51.690;5.174;2023-02-22T15:55:08;10.50;77.90
64670;DHT22;51080;51.690;5.174;2023-02-22T16:01:00;10.50;77.40
64670;DHT22;51080;51.690;5.174;2023-02-22T16:06:46;10.40;77.80
64670;DHT22;51080;51.690;5.174;2023-02-22T16:12:31;10.40;78.40
64670;DHT22;51080;51.690;5.174;2023-02-22T16:18:25;10.30;78.50
64670;DHT22;51080;51.690;5.174;2023-02-22T16:24:26;10.30;78.50
64670;DHT22;51080;51.690;5.174;2023-02-22T16:30:37;10.30;78.80
64670;DHT22;51080;51.690;5.174;2023-02-22T16:36:24;10.30;79.20
64670;DHT22;51080;51.690;5.174;2023-02-22T16:42:14;10.30;79.40
64670;DHT22;51080;51.690;5.174;2023-02-22T16:47:59;10.30;78.80
64670;DHT22;51080;51.690;5.174;2023-02-22T16:53:43;10.30;79.30
64670;DHT22;51080;51.690;5.174;2023-02-22T16:59:34;10.20;79.40
64670;DHT22;51080;51.690;5.174;2023-02-22T17:05:19;10.20;79.50
64670;DHT22;51080;51.690;5.174;2023-02-22T17:11:06;10.20;79.90
64670;DHT22;51080;51.690;5.174;2023-02-22T17:16:54;10.20;80.10
64670;DHT22;51080;51.690;5.174;2023-02-22T17:22:39;10.20;80.00
64670;DHT22;51080;51.690;5.174;2023-02-22T17:28:24;10.20;80.10
64670;DHT22;51080;51.690;5.174;2023-02-22T17:34:08;10.10;80.00
64670;DHT22;51080;51.690;5.174;2023-02-22T17:39:52;10.10;80.40
64670;DHT22;51080;51.690;5.174;2023-02-22T17:45:37;10.10;80.60
64670;DHT22;51080;51.690;5.174;2023-02-22T17:51:24;10.10;80.60
64670;DHT22;51080;51.690;5.174;2023-02-22T17:57:08;10.00;80.70
64670;DHT22;51080;51.690;5.174;2023-02-22T18:03:22;10.00;80.80
64670;DHT22;51080;51.690;5.174;2023-02-22T18:09:06;10.00;80.90
64670;DHT22;51080;51.690;5.174;2023-02-22T18:14:51;9.90;81.10
64670;DHT22;51080;51.690;5.174;2023-02-22T18:21:06;9.90;81.30
64670;DHT22;51080;51.690;5.174;2023-02-22T18:26:51;9.90;81.50
64670;DHT22;51080;51.690;5.174;2023-02-22T18:32:35;9.80;81.60
64670;DHT22;51080;51.690;5.174;2023-02-22T18:38:19;9.80;81.80
64670;DHT22;51080;51.690;5.174;2023-02-22T18:44:04;9.80;81.80
64670;DHT22;51080;51.690;5.174;2023-02-22T18:49:48;9.80;81.90
64670;DHT22;51080;51.690;5.174;2023-02-22T18:55:33;9.70;81.70
64670;DHT22;51080;51.690;5.174;2023-02-22T19:01:18;9.70;81.90
64670;DHT22;51080;51.690;5.174;2023-02-22T19:07:02;9.60;82.10
64670;DHT22;51080;51.690;5.174;2023-02-22T19:12:46;9.60;82.20
64670;DHT22;51080;51.690;5.174;2023-02-22T19:18:30;9.60;82.30
64670;DHT22;51080;51.690;5.174;2023-02-22T19:24:16;9.60;82.60
64670;DHT22;51080;51.690;5.174;2023-02-22T19:30:01;9.60;82.80
64670;DHT22;51080;51.690;5.174;2023-02-22T19:35:44;9.50;83.00
64670;DHT22;51080;51.690;5.174;2023-02-22T19:41:28;9.50;83.10
64670;DHT22;51080;51.690;5.174;2023-02-22T19:47:14;9.50;83.30
64670;DHT22;51080;51.690;5.174;2023-02-22T19:52:58;9.40;83.50
64670;DHT22;51080;51.690;5.174;2023-02-22T19:58:43;9.40;83.60
64670;DHT22;51080;51.690;5.174;2023-02-22T20:04:29;9.40;83.80
64670;DHT22;51080;51.690;5.174;2023-02-22T20:10:14;9.40;83.90
64670;DHT22;51080;51.690;5.174;2023-02-22T20:15:59;9.30;84.10
64670;DHT22;51080;51.690;5.174;2023-02-22T20:21:44;9.30;83.90
64670;DHT22;51080;51.690;5.174;2023-02-22T20:27:29;9.30;83.80
64670;DHT22;51080;51.690;5.174;2023-02-22T20:33:13;9.30;83.80
64670;DHT22;51080;51.690;5.174;2023-02-22T20:38:59;9.30;83.80
64670;DHT22;51080;51.690;5.174;2023-02-22T20:44:43;9.30;83.70
64670;DHT22;51080;51.690;5.174;2023-02-22T20:50:27;9.30;83.50
64670;DHT22;51080;51.690;5.174;2023-02-22T20:56:14;9.30;83.40
64670;DHT22;51080;51.690;5.174;2023-02-22T21:01:59;9.20;83.50
64670;DHT22;51080;51.690;5.174;2023-02-22T21:07:44;9.20;83.40
64670;DHT22;51080;51.690;5.174;2023-02-22T21:13:29;9.10;83.50
64670;DHT22;51080;51.690;5.174;2023-02-22T21:19:15;9.10;83.50
64670;DHT22;51080;51.690;5.174;2023-02-22T21:24:59;9.10;83.60
64670;DHT22;51080;51.690;5.174;2023-02-22T21:30:45;9.10;83.80
64670;DHT22;51080;51.690;5.174;2023-02-22T21:36:29;9.20;84.00
64670;DHT22;51080;51.690;5.174;2023-02-22T21:42:14;9.20;84.20
64670;DHT22;51080;51.690;5.174;2023-02-22T21:48:00;9.20;83.50
64670;DHT22;51080;51.690;5.174;2023-02-22T21:53:47;9.20;83.20
64670;DHT22;51080;51.690;5.174;2023-02-22T21:59:33;9.10;83.00
64670;DHT22;51080;51.690;5.174;2023-02-22T22:05:18;9.10;83.00
64670;DHT22;51080;51.690;5.174;2023-02-22T22:11:03;9.10;82.90
64670;DHT22;51080;51.690;5.174;2023-02-22T22:16:50;9.10;83.10
64670;DHT22;51080;51.690;5.174;2023-02-22T22:22:36;9.00;83.20
64670;DHT22;51080;51.690;5.174;2023-02-22T22:28:21;9.00;83.20
64670;DHT22;51080;51.690;5.174;2023-02-22T22:34:05;9.00;83.20
64670;DHT22;51080;51.690;5.174;2023-02-22T22:39:49;9.00;83.20
64670;DHT22;51080;51.690;5.174;2023-02-22T22:45:34;8.90;83.20
64670;DHT22;51080;51.690;5.174;2023-02-22T22:51:19;8.90;83.30
64670;DHT22;51080;51.690;5.174;2023-02-22T22:57:05;8.90;83.40
64670;DHT22;51080;51.690;5.174;2023-02-22T23:02:49;8.90;83.40
64670;DHT22;51080;51.690;5.174;2023-02-22T23:08:33;8.90;83.40
64670;DHT22;51080;51.690;5.174;2023-02-22T23:14:24;8.90;83.50
64670;DHT22;51080;51.690;5.174;2023-02-22T23:20:41;8.90;83.40
64670;DHT22;51080;51.690;5.174;2023-02-22T23:26:26;8.90;83.50
64670;DHT22;51080;51.690;5.174;2023-02-22T23:32:10;8.90;83.40
64670;DHT22;51080;51.690;5.174;2023-02-22T23:37:55;8.80;83.60
64670;DHT22;51080;51.690;5.174;2023-02-22T23:43:41;8.80;83.50
64670;DHT22;51080;51.690;5.174;2023-02-22T23:49:27;8.80;83.60
64670;DHT22;51080;51.690;5.174;2023-02-22T23:55:12;8.70;83.60
